Time;durP1;ratioP1;P1;durP2;ratioP2;P2;SDS_P1;SDS_P2;PMS_P1;PMS_P2;Temp;Humidity;BMP_temperature;BMP_pressure;BME280_temperature;BME280_humidity;BME280_pressure;Samples;Min_cycle;Max_cycle;Signal;HPM_P1;HPM_P2
2021/12/05 00:19:59;;;;;;;10.98;4.07;;;26.50;49.70;;;;;;5051210;28;20214;-42
2021/12/05 00:22:35;;;;;;;8.73;3.15;;;26.50;49.70;;;;;;5072787;28;20199;-42
2021/12/05 00:25:10;;;;;;;9.90;2.83;;;26.50;49.60;;;;;;5073256;28;20205;-43
2021/12/05 00:27:45;;;;;;;6.88;2.63;;;26.50;49.60;;;;;;5072455;28;20301;-46
2021/12/05 00:30:40;;;;;;;4.25;2.00;;;26.50;49.60;;;;;;5071179;28;20452;-45
2021/12/05 00:33:29;;;;;;;5.72;1.90;;;26.60;49.60;;;;;;5071699;28;20199;-43
2021/12/05 00:42:00;;;;;;;4.63;2.17;;;26.70;49.60;;;;;;5061163;28;20738;-44
2021/12/05 00:47:35;;;;;;;4.50;1.80;;;26.70;49.60;;;;;;5076950;28;20305;-43
2021/12/05 00:55:50;;;;;;;3.88;1.75;;;26.90;49.60;;;;;;5072354;28;20202;-43
2021/12/05 01:01:38;;;;;;;3.30;1.50;;;26.90;49.60;;;;;;5064401;28;20534;-42
2021/12/05 01:07:16;;;;;;;3.20;1.70;;;27.00;49.50;;;;;;5071548;28;20210;-43
2021/12/05 01:10:02;;;;;;;3.45;1.50;;;27.00;49.60;;;;;;5070752;28;20194;-43
2021/12/05 01:12:50;;;;;;;1.60;1.10;;;27.00;49.70;;;;;;5071127;28;20501;-46
2021/12/05 01:15:24;;;;;;;2.47;1.60;;;27.00;49.60;;;;;;5070097;28;20253;-42
2021/12/05 01:18:01;;;;;;;3.10;1.40;;;27.10;49.60;;;;;;5071917;28;20226;-44
2021/12/05 01:20:35;;;;;;;2.30;1.27;;;27.10;49.60;;;;;;5072271;28;20650;-42
2021/12/05 01:23:11;;;;;;;3.38;1.42;;;27.10;49.60;;;;;;5071775;28;20228;-45
2021/12/05 01:25:46;;;;;;;2.30;1.05;;;27.10;49.50;;;;;;5087364;28;20193;-45
2021/12/05 01:28:27;;;;;;;3.70;1.48;;;27.20;49.60;;;;;;5070058;28;20218;-47
2021/12/05 01:31:09;;;;;;;2.42;1.50;;;27.20;49.60;;;;;;5069596;28;20285;-43
2021/12/05 01:33:45;;;;;;;2.55;1.40;;;27.20;49.50;;;;;;5070519;28;20206;-43
2021/12/05 01:36:25;;;;;;;3.50;1.25;;;27.20;49.50;;;;;;5071759;28;20297;-45
2021/12/05 01:39:05;;;;;;;2.45;1.15;;;27.30;49.50;;;;;;5082668;28;20229;-43
2021/12/05 01:42:16;;;;;;;2.92;1.30;;;27.30;49.50;;;;;;5072518;28;20209;-45
2021/12/05 01:45:21;;;;;;;2.13;1.17;;;27.30;49.50;;;;;;5072294;28;20199;-44
2021/12/05 01:57:06;;;;;;;1.83;0.93;;;27.40;49.10;;;;;;4994346;28;20290;-43
2021/12/05 02:02:54;;;;;;;1.17;0.85;;;27.40;49.30;;;;;;5014481;28;20202;-43
2021/12/05 02:11:24;;;;;;;1.63;0.93;;;27.40;49.20;;;;;;5051239;28;20199;-49
2021/12/05 02:29:36;;;;;;;2.33;0.90;;;27.50;49.20;;;;;;5069376;28;20749;-49
2021/12/05 02:33:46;;;;;;;1.70;0.75;;;27.50;49.00;;;;;;5072624;28;20202;-48
2021/12/05 02:39:36;;;;;;;1.48;0.88;;;27.50;49.00;;;;;;5073519;28;20243;-42
2021/12/05 02:42:13;;;;;;;2.38;0.80;;;27.60;48.90;;;;;;5090361;28;20624;-44
2021/12/05 02:44:46;;;;;;;2.08;0.88;;;27.50;48.90;;;;;;5073322;28;20247;-43
2021/12/05 02:47:20;;;;;;;1.48;0.80;;;27.50;48.90;;;;;;5075289;28;20210;-50
2021/12/05 02:49:53;;;;;;;1.63;0.73;;;27.50;48.90;;;;;;5073982;28;20237;-45
2021/12/05 02:52:29;;;;;;;2.00;0.90;;;27.50;48.90;;;;;;5081434;28;20230;-46
2021/12/05 02:55:09;;;;;;;1.20;0.55;;;27.60;49.10;;;;;;5079640;28;20620;-44
2021/12/05 02:57:52;;;;;;;1.45;0.90;;;27.60;49.10;;;;;;5075799;28;20805;-43
2021/12/05 03:00:35;;;;;;;1.70;0.80;;;27.60;49.10;;;;;;5082745;28;20686;-45
2021/12/05 03:03:05;;;;;;;1.92;0.70;;;27.70;49.10;;;;;;5073110;28;20639;-49
2021/12/05 03:05:42;;;;;;;0.90;0.70;;;27.60;49.00;;;;;;5073027;28;20286;-43
2021/12/05 03:08:13;;;;;;;1.42;0.73;;;27.70;49.00;;;;;;5073249;28;20210;-50
2021/12/05 03:10:45;;;;;;;0.82;0.60;;;27.70;49.00;;;;;;5074278;28;20289;-43
2021/12/05 03:13:16;;;;;;;1.33;0.80;;;27.70;49.00;;;;;;5072097;28;20713;-45
2021/12/05 03:15:47;;;;;;;1.10;0.73;;;27.70;49.00;;;;;;5073445;28;20282;-48
2021/12/05 03:18:17;;;;;;;1.15;0.65;;;27.70;49.00;;;;;;5073742;28;20237;-44
2021/12/05 03:20:48;;;;;;;1.80;0.65;;;27.80;49.00;;;;;;5072715;28;20377;-54
2021/12/05 03:23:19;;;;;;;0.73;0.57;;;27.80;48.90;;;;;;5075292;28;20282;-48
2021/12/05 03:25:51;;;;;;;1.15;0.60;;;27.80;48.90;;;;;;5077322;28;20202;-46
2021/12/05 03:28:22;;;;;;;1.10;0.60;;;27.80;48.80;;;;;;5085925;28;20301;-44
2021/12/05 03:30:52;;;;;;;0.70;0.60;;;27.80;48.80;;;;;;5075131;28;20194;-48
2021/12/05 03:33:23;;;;;;;1.33;0.60;;;27.80;48.80;;;;;;5090709;28;21187;-45
2021/12/05 03:35:54;;;;;;;2.15;0.60;;;27.80;48.80;;;;;;5070984;28;20294;-46
2021/12/05 03:38:24;;;;;;;1.05;0.57;;;27.90;48.90;;;;;;5073840;28;20305;-43
2021/12/05 03:40:57;;;;;;;1.15;0.60;;;27.90;48.80;;;;;;5085434;28;20285;-43
2021/12/05 03:43:27;;;;;;;0.93;0.50;;;27.90;48.80;;;;;;5087571;28;20635;-46
2021/12/05 03:46:00;;;;;;;0.60;0.50;;;27.90;48.80;;;;;;5081220;28;20733;-44
2021/12/05 03:48:33;;;;;;;1.73;0.60;;;27.90;48.70;;;;;;5076668;28;20305;-43
2021/12/05 03:51:04;;;;;;;2.10;0.65;;;27.90;48.60;;;;;;5084076;28;20282;-45
2021/12/05 03:53:35;;;;;;;1.02;0.50;;;28.00;48.70;;;;;;5083856;28;21030;-44
2021/12/05 03:56:08;;;;;;;1.02;0.50;;;28.00;48.70;;;;;;5077460;28;20273;-42
2021/12/05 03:58:40;;;;;;;1.45;0.57;;;28.00;48.60;;;;;;5087880;28;20304;-44
2021/12/05 04:01:14;;;;;;;0.68;0.50;;;28.10;48.70;;;;;;5086510;28;20194;-46
2021/12/05 04:03:46;;;;;;;0.73;0.40;;;28.10;48.70;;;;;;5072372;28;20297;-43
2021/12/05 04:06:19;;;;;;;0.40;0.40;;;28.10;48.60;;;;;;5073378;28;20203;-46
2021/12/05 04:08:50;;;;;;;0.70;0.50;;;28.10;48.50;;;;;;5073550;28;20305;-46
2021/12/05 04:11:28;;;;;;;0.50;0.40;;;28.10;48.40;;;;;;5071336;28;20742;-49
2021/12/05 04:13:59;;;;;;;0.55;0.50;;;28.10;48.40;;;;;;5072040;28;20724;-44
2021/12/05 04:16:30;;;;;;;0.88;0.70;;;28.10;48.40;;;;;;5072294;28;20278;-43
2021/12/05 04:19:00;;;;;;;0.65;0.60;;;28.10;48.30;;;;;;5072789;28;20304;-45
2021/12/05 04:21:31;;;;;;;0.70;0.60;;;28.20;48.20;;;;;;5072696;28;20238;-46
2021/12/05 04:24:02;;;;;;;0.47;0.43;;;28.20;48.20;;;;;;5070890;28;20227;-46
2021/12/05 04:26:35;;;;;;;0.50;0.40;;;28.20;48.20;;;;;;5085143;28;20285;-46
2021/12/05 04:29:06;;;;;;;0.77;0.50;;;28.20;48.20;;;;;;5075132;28;20761;-45
2021/12/05 04:31:39;;;;;;;0.38;0.30;;;28.20;48.30;;;;;;5071935;28;20197;-43
2021/12/05 04:34:11;;;;;;;1.10;0.60;;;28.20;48.40;;;;;;5071344;28;20203;-43
2021/12/05 04:36:43;;;;;;;0.57;0.52;;;28.20;48.50;;;;;;5071464;28;20201;-43
2021/12/05 04:39:14;;;;;;;0.88;0.50;;;28.20;48.50;;;;;;5072594;28;20762;-43
2021/12/05 04:41:47;;;;;;;1.23;0.60;;;28.20;48.50;;;;;;5072124;28;20285;-46
2021/12/05 04:44:19;;;;;;;0.80;0.52;;;28.20;48.50;;;;;;5071927;28;20634;-44
2021/12/05 04:46:51;;;;;;;0.70;0.50;;;28.20;48.60;;;;;;5072150;28;20198;-45
2021/12/05 04:49:21;;;;;;;0.93;0.47;;;28.20;48.70;;;;;;5070843;28;20662;-43
2021/12/05 04:51:52;;;;;;;0.57;0.40;;;28.20;48.60;;;;;;5071010;28;20277;-47
2021/12/05 04:54:23;;;;;;;0.60;0.43;;;28.20;48.60;;;;;;5080192;28;20273;-44
2021/12/05 04:56:56;;;;;;;0.40;0.40;;;28.20;48.40;;;;;;5077671;28;20312;-42
2021/12/05 04:59:28;;;;;;;0.45;0.45;;;28.30;48.40;;;;;;5081365;28;20229;-43
2021/12/05 05:02:00;;;;;;;0.60;0.40;;;28.30;48.30;;;;;;5078466;28;20190;-43
2021/12/05 05:04:37;;;;;;;0.50;0.40;;;28.20;48.40;;;;;;5077157;28;20203;-43
2021/12/05 05:07:15;;;;;;;0.98;0.52;;;28.30;48.30;;;;;;5078484;28;20255;-46
2021/12/05 05:09:46;;;;;;;0.80;0.50;;;28.30;48.30;;;;;;5077814;28;20294;-44
2021/12/05 05:12:19;;;;;;;1.33;0.60;;;28.30;48.40;;;;;;5077473;28;20216;-44
2021/12/05 05:14:50;;;;;;;1.23;0.60;;;28.30;48.30;;;;;;5078925;28;20255;-46
2021/12/05 05:17:21;;;;;;;0.55;0.55;;;28.30;48.40;;;;;;5076110;28;20230;-43
2021/12/05 05:19:55;;;;;;;0.82;0.40;;;28.30;48.40;;;;;;5078714;28;20301;-43
2021/12/05 05:22:36;;;;;;;0.50;0.40;;;28.30;48.40;;;;;;5074816;28;20282;-43
2021/12/05 05:28:30;;;;;;;0.40;0.40;;;28.40;48.50;;;;;;5071934;28;20214;-43
2021/12/05 05:45:22;;;;;;;0.77;0.43;;;28.50;48.50;;;;;;5072808;28;20244;-46
2021/12/05 05:48:01;;;;;;;1.05;0.43;;;28.50;48.50;;;;;;5070531;28;20511;-43
2021/12/05 05:50:32;;;;;;;0.68;0.47;;;28.50;48.40;;;;;;5072204;28;20199;-48
2021/12/05 05:53:02;;;;;;;1.67;0.60;;;28.60;48.50;;;;;;5071820;28;20310;-43
2021/12/05 05:55:33;;;;;;;0.50;0.40;;;28.60;48.50;;;;;;5071827;28;20201;-48
2021/12/05 05:58:07;;;;;;;1.17;0.77;;;28.60;48.40;;;;;;5083795;28;20589;-42
2021/12/05 06:00:53;;;;;;;0.60;0.50;;;28.60;48.40;;;;;;5070270;28;20277;-44
2021/12/05 06:03:24;;;;;;;2.53;1.02;;;28.60;48.20;;;;;;5072133;28;20571;-40
2021/12/05 06:05:57;;;;;;;2.50;0.70;;;28.60;47.70;;;;;;5073737;28;20190;-41
2021/12/05 06:08:29;;;;;;;1.75;0.65;;;28.60;47.40;;;;;;5077410;28;20329;-41
2021/12/05 06:11:02;;;;;;;3.05;0.50;;;28.60;47.70;;;;;;5084352;28;20202;-40
2021/12/05 06:13:33;;;;;;;2.45;0.85;;;28.60;47.70;;;;;;5079733;28;20194;-40
2021/12/05 06:16:06;;;;;;;4.47;0.80;;;28.60;47.90;;;;;;5075998;28;20566;-41
2021/12/05 06:18:37;;;;;;;1.95;0.70;;;28.60;47.80;;;;;;5079154;28;20340;-42
2021/12/05 06:21:08;;;;;;;3.85;0.90;;;28.60;47.80;;;;;;5087304;28;20452;-40
2021/12/05 06:23:39;;;;;;;1.17;0.70;;;28.60;47.80;;;;;;5086717;28;20195;-47
2021/12/05 06:26:13;;;;;;;3.90;1.10;;;28.60;47.80;;;;;;5073882;28;20218;-49
2021/12/05 06:28:45;;;;;;;1.00;0.50;;;28.60;47.90;;;;;;5089141;28;20226;-51
2021/12/05 06:31:26;;;;;;;1.25;0.60;;;28.70;48.00;;;;;;5073744;28;20682;-46
2021/12/05 06:36:59;;;;;;;1.80;0.70;;;28.70;47.70;;;;;;5074107;28;20229;-41
2021/12/05 06:39:41;;;;;;;1.45;0.73;;;28.70;47.70;;;;;;5073601;28;20230;-45
2021/12/05 06:47:53;;;;;;;1.60;0.70;;;28.70;47.50;;;;;;5075194;28;20229;-43
2021/12/05 06:50:24;;;;;;;2.05;0.80;;;28.60;47.30;;;;;;5074969;28;20203;-42
2021/12/05 06:52:54;;;;;;;1.50;0.70;;;28.60;47.30;;;;;;5074097;28;20203;-48
2021/12/05 06:55:25;;;;;;;4.53;0.70;;;28.60;47.40;;;;;;5072807;28;20282;-45
2021/12/05 06:57:56;;;;;;;3.85;0.80;;;28.60;47.60;;;;;;5074782;28;20313;-45
2021/12/05 07:00:28;;;;;;;2.58;0.80;;;28.60;47.60;;;;;;5073174;28;20222;-42
2021/12/05 07:03:01;;;;;;;2.30;0.70;;;28.60;47.60;;;;;;5072379;28;20299;-48
2021/12/05 07:05:50;;;;;;;3.88;0.90;;;28.50;47.50;;;;;;5071929;28;20274;-52
2021/12/05 07:08:22;;;;;;;0.90;0.60;;;28.50;47.50;;;;;;5072799;28;20226;-40
2021/12/05 07:10:59;;;;;;;2.25;0.75;;;28.60;47.60;;;;;;5073460;28;20198;-50
2021/12/05 07:16:22;;;;;;;3.10;0.80;;;28.50;47.50;;;;;;5074734;28;20209;-44
2021/12/05 07:21:46;;;;;;;2.10;0.65;;;28.50;47.60;;;;;;5064329;28;20194;-40
2021/12/05 07:24:30;;;;;;;2.35;0.85;;;28.50;47.60;;;;;;5078074;28;20281;-44
2021/12/05 07:40:19;;;;;;;3.63;1.50;;;28.50;47.70;;;;;;5076763;28;20654;-41
2021/12/05 07:41:22;;;;;;;6.13;1.27;;;28.40;47.80;;;;;;5085909;28;20251;-47
2021/12/05 07:43:53;;;;;;;3.75;1.50;;;28.40;47.80;;;;;;5084022;28;20190;-46
2021/12/05 07:46:23;;;;;;;3.72;1.73;;;28.40;47.80;;;;;;5087730;28;20675;-43
2021/12/05 07:48:54;;;;;;;2.08;1.27;;;28.40;47.90;;;;;;5084201;28;20259;-55
2021/12/05 07:51:28;;;;;;;3.22;1.50;;;28.30;47.90;;;;;;5088143;28;20675;-44
2021/12/05 07:54:08;;;;;;;2.30;1.20;;;28.30;47.90;;;;;;5078924;28;20281;-55
2021/12/05 07:56:44;;;;;;;3.90;1.33;;;28.30;48.00;;;;;;5087995;28;20193;-40
2021/12/05 07:59:26;;;;;;;3.20;1.40;;;28.30;47.90;;;;;;5085031;28;20740;-40
2021/12/05 08:16:00;;;;;;;3.13;1.48;;;28.30;48.00;;;;;;5085050;28;20572;-41
2021/12/05 08:18:32;;;;;;;2.80;1.40;;;28.20;47.90;;;;;;5083621;28;20304;-42
2021/12/05 08:21:03;;;;;;;2.90;1.50;;;28.20;47.90;;;;;;5083436;28;20282;-40
2021/12/05 08:23:36;;;;;;;2.22;1.35;;;28.20;47.90;;;;;;5080636;28;20309;-41
2021/12/05 08:26:09;;;;;;;3.08;1.40;;;28.10;47.90;;;;;;5082361;28;20285;-42
2021/12/05 08:29:00;;;;;;;2.50;1.25;;;28.10;48.00;;;;;;5084338;28;20218;-39
2021/12/05 08:31:41;;;;;;;1.70;1.10;;;28.10;48.00;;;;;;5084334;28;20654;-46
2021/12/05 08:34:32;;;;;;;2.97;1.40;;;28.00;48.00;;;;;;5084381;28;20206;-42
2021/12/05 08:43:07;;;;;;;2.30;1.33;;;27.90;48.00;;;;;;5085850;28;20200;-43
2021/12/05 08:45:59;;;;;;;2.78;1.08;;;27.90;48.00;;;;;;5084584;28;20227;-48
2021/12/05 09:23:02;;;;;;;2.42;0.80;;;27.40;48.20;;;;;;5061628;28;20844;-44
2021/12/05 09:25:54;;;;;;;2.25;0.88;;;27.40;48.30;;;;;;5071935;28;20203;-46
2021/12/05 09:38:31;;;;;;;1.42;0.80;;;27.20;48.30;;;;;;5077913;28;20267;-53
2021/12/05 10:03:00;;;;;;;1.35;0.70;;;26.80;48.60;;;;;;5075389;28;20220;-46
2021/12/05 10:08:41;;;;;;;1.77;0.57;;;26.60;48.40;;;;;;5076960;28;20862;-44
2021/12/05 10:14:16;;;;;;;0.68;0.47;;;26.60;48.40;;;;;;5075160;28;20623;-43
2021/12/05 10:17:02;;;;;;;0.57;0.50;;;26.50;48.40;;;;;;5076205;28;20290;-49
2021/12/05 10:33:51;;;;;;;0.38;0.38;;;26.30;48.60;;;;;;5038658;28;20559;-51
2021/12/05 10:36:25;;;;;;;0.55;0.45;;;26.30;48.60;;;;;;5049839;28;20728;-51
2021/12/05 10:39:03;;;;;;;0.50;0.43;;;26.20;48.60;;;;;;5074686;28;20301;-45
2021/12/05 10:41:58;;;;;;;0.60;0.50;;;26.20;48.70;;;;;;5075657;28;20191;-47
2021/12/05 10:44:44;;;;;;;0.50;0.50;;;26.10;48.70;;;;;;5077814;28;20251;-44
2021/12/05 10:47:15;;;;;;;0.52;0.45;;;26.10;48.70;;;;;;5075738;28;20648;-43
2021/12/05 10:49:45;;;;;;;0.65;0.40;;;26.10;48.90;;;;;;5078160;28;20198;-43
2021/12/05 10:52:22;;;;;;;0.60;0.60;;;26.00;48.80;;;;;;5082331;28;20194;-51
2021/12/05 10:55:00;;;;;;;0.40;0.40;;;26.00;48.90;;;;;;5081931;28;20757;-45
2021/12/05 10:57:40;;;;;;;0.73;0.57;;;25.90;48.90;;;;;;5080366;28;20198;-47
2021/12/05 11:00:15;;;;;;;0.77;0.43;;;25.90;48.90;;;;;;5077091;28;20301;-43
2021/12/05 11:02:45;;;;;;;0.80;0.40;;;25.80;48.90;;;;;;5080308;28;20277;-45
2021/12/05 11:05:37;;;;;;;0.82;0.40;;;25.80;49.00;;;;;;5079697;28;20195;-51
2021/12/05 11:08:28;;;;;;;0.90;0.60;;;25.70;49.00;;;;;;5077575;28;20298;-46
2021/12/05 11:11:13;;;;;;;1.17;0.40;;;25.70;48.90;;;;;;5077751;28;20202;-43
2021/12/05 11:13:45;;;;;;;0.45;0.45;;;25.70;49.00;;;;;;5074340;28;20205;-43
2021/12/05 11:16:35;;;;;;;0.38;0.38;;;25.70;49.00;;;;;;5074643;28;20651;-45
2021/12/05 11:19:10;;;;;;;0.50;0.45;;;25.70;49.00;;;;;;5074507;28;20233;-43
2021/12/05 11:21:46;;;;;;;0.40;0.40;;;25.60;49.00;;;;;;5074460;28;20198;-43
2021/12/05 11:24:22;;;;;;;0.50;0.50;;;25.60;49.00;;;;;;5074369;28;20723;-43
2021/12/05 11:27:13;;;;;;;0.68;0.45;;;25.50;49.10;;;;;;5072313;28;20272;-44
2021/12/05 11:29:52;;;;;;;0.50;0.50;;;25.50;49.10;;;;;;5078644;28;20210;-43
2021/12/05 11:32:33;;;;;;;0.50;0.50;;;25.50;49.10;;;;;;5073235;28;20200;-43
2021/12/05 11:35:20;;;;;;;0.40;0.40;;;25.40;49.10;;;;;;5074692;28;20193;-44
2021/12/05 11:37:57;;;;;;;1.13;0.40;;;25.40;49.20;;;;;;5071830;28;20746;-43
2021/12/05 11:40:32;;;;;;;0.80;0.43;;;25.30;49.10;;;;;;5071493;28;20230;-43
2021/12/05 11:43:07;;;;;;;1.10;0.50;;;25.30;49.20;;;;;;5072588;28;20420;-43
2021/12/05 11:45:56;;;;;;;0.45;0.45;;;25.30;49.20;;;;;;5072623;28;20204;-45
2021/12/05 11:48:29;;;;;;;0.40;0.40;;;25.20;49.20;;;;;;5077792;28;20222;-43
2021/12/05 11:51:00;;;;;;;0.63;0.30;;;25.20;49.80;;;;;;5072718;28;20310;-42
2021/12/05 11:53:44;;;;;;;0.93;0.45;;;25.10;49.30;;;;;;5073842;28;20277;-44
2021/12/05 11:56:23;;;;;;;0.30;0.30;;;25.10;49.30;;;;;;5072991;28;20209;-44
2021/12/05 11:59:14;;;;;;;0.40;0.40;;;25.10;49.30;;;;;;5073310;28;20218;-43
2021/12/05 12:01:52;;;;;;;0.40;0.40;;;25.10;49.30;;;;;;5079129;28;20285;-43
2021/12/05 12:04:26;;;;;;;0.40;0.40;;;25.10;49.30;;;;;;5073766;28;20663;-43
2021/12/05 12:07:15;;;;;;;0.55;0.30;;;25.00;49.20;;;;;;5073758;28;20207;-42
2021/12/05 12:09:47;;;;;;;0.65;0.30;;;25.00;49.30;;;;;;5072438;28;20195;-43
2021/12/05 12:12:18;;;;;;;1.48;0.50;;;25.00;49.30;;;;;;5072836;28;20195;-43
2021/12/05 12:14:50;;;;;;;0.68;0.50;;;24.90;49.30;;;;;;5073586;28;20285;-44
2021/12/05 12:17:20;;;;;;;0.40;0.38;;;24.90;49.30;;;;;;5070513;28;20864;-45
2021/12/05 12:19:54;;;;;;;0.93;0.52;;;24.90;49.40;;;;;;5075230;28;20301;-43
2021/12/05 12:22:26;;;;;;;0.98;0.60;;;24.80;49.30;;;;;;5071452;28;20195;-43
2021/12/05 12:24:59;;;;;;;0.43;0.30;;;24.80;49.40;;;;;;5072676;28;20281;-43
2021/12/05 12:27:30;;;;;;;0.65;0.43;;;24.70;49.30;;;;;;5079166;28;20195;-43
2021/12/05 12:30:05;;;;;;;0.52;0.45;;;24.70;49.30;;;;;;5080468;28;20678;-42
2021/12/05 12:32:40;;;;;;;0.38;0.38;;;24.60;49.40;;;;;;5080476;28;20217;-43
2021/12/05 12:35:14;;;;;;;0.52;0.20;;;24.70;49.40;;;;;;5070963;28;20624;-43
2021/12/05 12:37:59;;;;;;;0.70;0.30;;;24.60;49.40;;;;;;5072882;28;20298;-45
2021/12/05 12:40:39;;;;;;;0.40;0.40;;;24.60;49.50;;;;;;5072378;28;20220;-44
2021/12/05 12:43:11;;;;;;;0.80;0.55;;;24.50;49.40;;;;;;5085660;28;20286;-43
2021/12/05 12:45:45;;;;;;;0.38;0.25;;;24.50;49.40;;;;;;5070863;28;20197;-43
2021/12/05 12:48:18;;;;;;;0.55;0.40;;;24.50;49.50;;;;;;5070403;28;20694;-43
2021/12/05 12:50:52;;;;;;;0.40;0.40;;;24.50;49.50;;;;;;5071086;28;20218;-45
2021/12/05 12:53:26;;;;;;;0.38;0.30;;;24.50;49.50;;;;;;5082107;28;20194;-42
2021/12/05 12:56:02;;;;;;;0.38;0.38;;;24.40;49.50;;;;;;5077582;28;20582;-43
2021/12/05 12:58:42;;;;;;;0.38;0.30;;;24.30;49.40;;;;;;5073769;28;20222;-43
2021/12/05 13:01:36;;;;;;;0.50;0.40;;;24.40;49.50;;;;;;5077553;28;20263;-42
2021/12/05 13:10:00;;;;;;;0.50;0.30;;;24.30;49.50;;;;;;5071725;28;20206;-43
2021/12/05 13:10:29;;;;;;;0.47;0.45;;;24.20;49.50;;;;;;5072566;28;20260;-43
2021/12/05 13:13:03;;;;;;;0.40;0.40;;;24.20;49.50;;;;;;5079557;28;20273;-43
2021/12/05 13:15:44;;;;;;;0.45;0.45;;;24.10;49.50;;;;;;5078928;28;20202;-44
2021/12/05 13:18:29;;;;;;;1.27;0.32;;;24.10;49.60;;;;;;5072358;28;20301;-43
2021/12/05 13:21:06;;;;;;;0.50;0.40;;;24.00;49.60;;;;;;5071010;28;20309;-43
2021/12/05 13:23:44;;;;;;;0.20;0.20;;;24.00;49.60;;;;;;5070930;28;20566;-45
2021/12/05 13:26:27;;;;;;;0.68;0.40;;;24.00;49.70;;;;;;5070708;28;20195;-43
2021/12/05 13:29:14;;;;;;;1.35;0.45;;;24.00;49.70;;;;;;5069984;28;20638;-44
2021/12/05 13:31:53;;;;;;;0.40;0.40;;;24.00;49.70;;;;;;5071723;28;20195;-44
2021/12/05 13:34:33;;;;;;;0.70;0.35;;;23.90;49.70;;;;;;5070801;28;20569;-43
2021/12/05 13:37:27;;;;;;;0.77;0.40;;;23.90;49.70;;;;;;5071350;28;20194;-43
2021/12/05 13:40:06;;;;;;;0.60;0.38;;;23.90;49.80;;;;;;5086201;28;20281;-42
2021/12/05 13:42:47;;;;;;;0.20;0.20;;;23.80;49.70;;;;;;5072145;28;20273;-43
2021/12/05 13:45:39;;;;;;;1.35;0.40;;;23.80;49.80;;;;;;5070521;28;20610;-43
2021/12/05 13:48:17;;;;;;;0.30;0.30;;;23.80;49.80;;;;;;5069335;28;20222;-43
2021/12/05 13:50:56;;;;;;;0.50;0.30;;;23.80;49.80;;;;;;5068884;28;20665;-44
2021/12/05 13:53:33;;;;;;;0.45;0.40;;;23.70;49.80;;;;;;5085125;28;20247;-43
2021/12/05 13:56:21;;;;;;;0.47;0.38;;;23.70;49.80;;;;;;5070585;28;20205;-42
2021/12/05 13:58:53;;;;;;;0.73;0.40;;;23.70;49.80;;;;;;5082198;28;20225;-44
2021/12/05 14:01:29;;;;;;;0.85;0.40;;;23.60;49.80;;;;;;5075737;28;20621;-43
2021/12/05 14:04:27;;;;;;;0.43;0.30;;;23.50;49.80;;;;;;5072022;28;20201;-43
2021/12/05 14:07:02;;;;;;;0.47;0.30;;;23.60;49.80;;;;;;5072390;28;20567;-42
2021/12/05 14:09:36;;;;;;;0.40;0.28;;;23.50;49.80;;;;;;5073504;28;20589;-43
2021/12/05 14:12:10;;;;;;;0.60;0.30;;;23.50;49.90;;;;;;5084012;28;20289;-42
2021/12/05 14:14:42;;;;;;;1.02;0.45;;;23.50;49.90;;;;;;5083587;28;20194;-43
2021/12/05 14:17:15;;;;;;;0.65;0.40;;;23.40;49.90;;;;;;5083394;28;20398;-47
2021/12/05 14:19:48;;;;;;;0.40;0.40;;;23.40;49.90;;;;;;5070723;28;20214;-43
2021/12/05 14:22:22;;;;;;;1.45;0.60;;;23.40;49.90;;;;;;5070759;28;20281;-43
2021/12/05 14:24:55;;;;;;;0.60;0.60;;;23.40;50.00;;;;;;5073350;28;20282;-43
2021/12/05 14:27:27;;;;;;;0.50;0.45;;;23.30;49.90;;;;;;5073832;28;20206;-45
2021/12/05 14:29:58;;;;;;;0.88;0.60;;;23.30;50.00;;;;;;5074333;28;20745;-44
2021/12/05 14:32:31;;;;;;;0.85;0.40;;;23.30;50.00;;;;;;5074649;28;20224;-43
2021/12/05 14:35:05;;;;;;;0.57;0.50;;;23.30;50.00;;;;;;5075226;28;20201;-42
2021/12/05 14:37:40;;;;;;;1.30;0.55;;;23.20;50.00;;;;;;5080331;28;20300;-43
2021/12/05 14:40:13;;;;;;;1.02;0.60;;;23.20;50.00;;;;;;5083097;28;20198;-43
2021/12/05 14:42:45;;;;;;;0.93;0.43;;;23.20;50.00;;;;;;5075157;28;20286;-43
2021/12/05 14:45:20;;;;;;;1.02;0.60;;;23.20;50.10;;;;;;5074107;28;20201;-42
2021/12/05 14:47:52;;;;;;;1.35;0.70;;;23.10;50.10;;;;;;5088111;28;20217;-43
2021/12/05 14:50:24;;;;;;;1.35;0.57;;;23.10;50.10;;;;;;5072686;28;20202;-44
2021/12/05 14:53:00;;;;;;;0.55;0.40;;;23.10;50.10;;;;;;5084203;28;20552;-44
2021/12/05 14:55:32;;;;;;;0.45;0.45;;;23.00;50.20;;;;;;5074898;28;20209;-46
2021/12/05 14:58:05;;;;;;;1.52;0.63;;;23.00;50.10;;;;;;5081929;28;20235;-43
2021/12/05 15:00:37;;;;;;;1.10;0.50;;;23.00;50.10;;;;;;5077125;27;20219;-42
2021/12/05 15:03:09;;;;;;;1.27;0.60;;;23.00;50.20;;;;;;5079122;28;20209;-43
2021/12/05 15:05:41;;;;;;;0.70;0.40;;;23.00;50.20;;;;;;5074749;28;20294;-43
2021/12/05 15:08:15;;;;;;;0.63;0.45;;;22.90;50.10;;;;;;5074972;28;20717;-43
2021/12/05 15:10:47;;;;;;;1.33;0.50;;;22.90;50.20;;;;;;5075245;28;20198;-43
2021/12/05 15:13:20;;;;;;;2.00;0.65;;;22.90;50.20;;;;;;5074264;28;20205;-42
2021/12/05 15:15:52;;;;;;;0.80;0.40;;;22.90;50.20;;;;;;5073278;28;20198;-45
2021/12/05 15:18:28;;;;;;;1.63;0.47;;;22.90;50.20;;;;;;5072497;28;20656;-44
2021/12/05 15:21:00;;;;;;;1.10;0.40;;;22.80;50.20;;;;;;5074430;28;20222;-43
2021/12/05 15:23:33;;;;;;;0.98;0.60;;;22.80;50.20;;;;;;5072804;28;20289;-43
2021/12/05 15:26:06;;;;;;;1.05;0.63;;;22.80;50.20;;;;;;5073129;28;20405;-43
2021/12/05 15:28:36;;;;;;;1.50;0.60;;;22.80;50.20;;;;;;5074228;28;20729;-43
2021/12/05 15:31:10;;;;;;;1.40;0.68;;;22.80;50.20;;;;;;5075746;28;20195;-43
2021/12/05 15:33:40;;;;;;;0.88;0.55;;;22.70;50.20;;;;;;5086689;28;20570;-47
2021/12/05 15:36:12;;;;;;;1.35;0.60;;;22.70;50.20;;;;;;5072059;28;20285;-43
2021/12/05 15:38:44;;;;;;;1.73;0.52;;;22.70;50.30;;;;;;5090791;28;20280;-44
2021/12/05 15:41:17;;;;;;;0.65;0.40;;;22.60;50.30;;;;;;5088779;28;20222;-43
2021/12/05 15:43:47;;;;;;;0.80;0.40;;;22.60;50.30;;;;;;5073310;28;20194;-47
2021/12/05 15:46:18;;;;;;;1.20;0.63;;;22.60;50.40;;;;;;5073888;28;20289;-43
2021/12/05 15:48:50;;;;;;;1.63;0.70;;;22.60;50.30;;;;;;5074285;28;20225;-44
2021/12/05 15:51:21;;;;;;;1.08;0.65;;;22.50;50.30;;;;;;5073002;28;20234;-45
2021/12/05 15:53:54;;;;;;;2.17;1.00;;;22.60;50.30;;;;;;5076454;28;20283;-44
2021/12/05 15:56:24;;;;;;;0.80;0.50;;;22.50;50.30;;;;;;5074765;28;20277;-43
2021/12/05 15:59:07;;;;;;;1.83;0.50;;;22.50;50.30;;;;;;5088597;28;20879;-43
2021/12/05 16:01:38;;;;;;;2.05;0.57;;;22.50;50.40;;;;;;5072590;28;20222;-44
2021/12/05 16:04:20;;;;;;;1.45;0.75;;;22.40;50.40;;;;;;5070699;28;20202;-43
2021/12/05 16:06:52;;;;;;;1.27;0.77;;;22.50;50.40;;;;;;5071399;28;20599;-44
2021/12/05 16:09:27;;;;;;;1.27;0.60;;;22.40;50.40;;;;;;5072319;28;20272;-43
2021/12/05 16:12:10;;;;;;;1.70;0.80;;;22.40;50.40;;;;;;5073132;28;20758;-43
2021/12/05 16:14:44;;;;;;;1.33;0.70;;;22.40;50.40;;;;;;5071834;28;20780;-43
2021/12/05 16:17:19;;;;;;;0.75;0.52;;;22.30;50.30;;;;;;5078994;28;20395;-47
2021/12/05 16:20:21;;;;;;;1.30;0.50;;;22.30;50.40;;;;;;5077619;28;20198;-43
2021/12/05 16:23:09;;;;;;;1.38;0.80;;;22.30;50.50;;;;;;5020369;28;20219;-43
2021/12/05 16:25:48;;;;;;;2.90;0.90;;;22.30;50.40;;;;;;5073538;28;20202;-43
2021/12/05 16:28:25;;;;;;;1.38;0.70;;;22.30;50.40;;;;;;5071389;28;20305;-43
2021/12/05 16:31:02;;;;;;;1.40;0.60;;;22.30;50.40;;;;;;5070976;28;20285;-44
2021/12/05 16:33:34;;;;;;;0.90;0.40;;;22.20;50.40;;;;;;5079492;28;20297;-43
2021/12/05 16:36:06;;;;;;;1.30;0.70;;;22.20;50.40;;;;;;5072443;28;20786;-43
2021/12/05 16:38:38;;;;;;;1.65;0.60;;;22.20;50.50;;;;;;5072129;28;20765;-43
2021/12/05 16:41:18;;;;;;;1.55;0.52;;;22.20;50.50;;;;;;5088088;28;20217;-43
2021/12/05 16:43:59;;;;;;;1.40;0.70;;;22.20;50.50;;;;;;5071451;28;20293;-43
2021/12/05 16:46:33;;;;;;;1.85;0.60;;;22.20;50.50;;;;;;5068961;28;20195;-43
2021/12/05 16:49:06;;;;;;;1.77;0.93;;;22.10;50.50;;;;;;5070269;28;20367;-44
2021/12/05 16:51:39;;;;;;;2.13;0.80;;;22.10;50.50;;;;;;5084763;28;20198;-43
2021/12/05 16:54:20;;;;;;;1.42;0.77;;;22.10;50.50;;;;;;5085466;28;20281;-43
2021/12/05 16:56:58;;;;;;;1.92;0.90;;;22.10;50.50;;;;;;5088144;28;20225;-44
2021/12/05 16:59:33;;;;;;;1.70;0.70;;;22.00;50.50;;;;;;5077797;28;20752;-43
2021/12/05 17:02:17;;;;;;;1.55;0.60;;;22.00;50.50;;;;;;5078414;28;20214;-43
2021/12/05 17:05:05;;;;;;;2.75;0.75;;;22.00;50.50;;;;;;5072545;28;20807;-46
2021/12/05 17:07:40;;;;;;;1.13;0.50;;;22.00;50.50;;;;;;5074871;28;20225;-43
2021/12/05 17:10:32;;;;;;;1.50;0.52;;;22.00;50.50;;;;;;5072806;28;20206;-43
2021/12/05 17:13:13;;;;;;;1.85;0.70;;;21.90;50.50;;;;;;5073379;28;20286;-43
2021/12/05 17:15:55;;;;;;;1.45;0.73;;;21.90;50.50;;;;;;5073553;28;20201;-43
2021/12/05 17:18:29;;;;;;;1.50;0.60;;;21.90;50.50;;;;;;5078002;28;20578;-44
2021/12/05 17:21:01;;;;;;;1.40;0.80;;;21.90;50.60;;;;;;5069599;28;20615;-43
2021/12/05 17:23:36;;;;;;;1.55;0.50;;;21.90;50.60;;;;;;5069127;28;20285;-43
2021/12/05 17:26:20;;;;;;;0.93;0.60;;;21.80;50.50;;;;;;5069793;28;20227;-43